sensor_id;sensor_type;location;lat;lon;timestamp;temperature;humidity
20432;DHT22;10375;49.136;10.366;2023-06-24T00:01:32;16.00;99.90
20432;DHT22;10375;49.136;10.366;2023-06-24T00:04:00;16.00;99.90
20432;DHT22;10375;49.136;10.366;2023-06-24T00:06:28;16.00;99.90
20432;DHT22;10375;49.136;10.366;2023-06-24T00:08:55;16.00;99.90
20432;DHT22;10375;49.136;10.366;2023-06-24T00:11:28;16.00;99.90
20432;DHT22;10375;49.136;10.366;2023-06-24T00:13:56;16.00;99.90
20432;DHT22;10375;49.136;10.366;2023-06-24T00:16:24;16.00;99.90
20432;DHT22;10375;49.136;10.366;2023-06-24T00:18:55;16.10;99.90
20432;DHT22;10375;49.136;10.366;2023-06-24T00:21:25;16.10;99.90
20432;DHT22;10375;49.136;10.366;2023-06-24T00:24:00;16.10;99.90
20432;DHT22;10375;49.136;10.366;2023-06-24T00:26:31;16.00;99.90
20432;DHT22;10375;49.136;10.366;2023-06-24T00:28:59;16.00;99.90
20432;DHT22;10375;49.136;10.366;2023-06-24T00:31:26;16.00;99.90
20432;DHT22;10375;49.136;10.366;2023-06-24T00:33:53;15.90;99.90
20432;DHT22;10375;49.136;10.366;2023-06-24T00:36:20;15.90;99.90
20432;DHT22;10375;49.136;10.366;2023-06-24T00:38:48;15.90;99.90
20432;DHT22;10375;49.136;10.366;2023-06-24T00:41:18;15.80;99.90
20432;DHT22;10375;49.136;10.366;2023-06-24T00:43:45;15.80;99.90
20432;DHT22;10375;49.136;10.366;2023-06-24T00:46:13;15.80;99.90
20432;DHT22;10375;49.136;10.366;2023-06-24T00:48:40;15.80;99.90
20432;DHT22;10375;49.136;10.366;2023-06-24T00:51:08;15.80;99.90
20432;DHT22;10375;49.136;10.366;2023-06-24T00:53:35;15.90;99.90
20432;DHT22;10375;49.136;10.366;2023-06-24T00:56:02;15.80;99.90
20432;DHT22;10375;49.136;10.366;2023-06-24T00:58:31;15.70;99.90
20432;DHT22;10375;49.136;10.366;2023-06-24T01:00:59;15.60;99.90
20432;DHT22;10375;49.136;10.366;2023-06-24T01:03:28;15.40;99.90
20432;DHT22;10375;49.136;10.366;2023-06-24T01:05:57;15.30;99.90
20432;DHT22;10375;49.136;10.366;2023-06-24T01:08:25;15.20;99.90
20432;DHT22;10375;49.136;10.366;2023-06-24T01:10:52;15.10;99.90
20432;DHT22;10375;49.136;10.366;2023-06-24T01:13:19;15.00;99.90
20432;DHT22;10375;49.136;10.366;2023-06-24T01:15:46;15.00;99.90
20432;DHT22;10375;49.136;10.366;2023-06-24T01:18:24;14.90;99.90
20432;DHT22;10375;49.136;10.366;2023-06-24T01:21:09;14.80;99.90
20432;DHT22;10375;49.136;10.366;2023-06-24T01:34:55;14.60;99.90
20432;DHT22;10375;49.136;10.366;2023-06-24T01:40:17;14.50;99.90
20432;DHT22;10375;49.136;10.366;2023-06-24T01:42:47;14.30;99.90
20432;DHT22;10375;49.136;10.366;2023-06-24T01:45:23;14.20;99.90
20432;DHT22;10375;49.136;10.366;2023-06-24T01:48:01;14.10;99.90
20432;DHT22;10375;49.136;10.366;2023-06-24T01:50:32;14.00;99.90
20432;DHT22;10375;49.136;10.366;2023-06-24T01:53:03;13.90;99.90
20432;DHT22;10375;49.136;10.366;2023-06-24T01:55:32;13.80;99.90
20432;DHT22;10375;49.136;10.366;2023-06-24T01:58:02;13.80;99.90
20432;DHT22;10375;49.136;10.366;2023-06-24T02:00:29;13.90;99.90
20432;DHT22;10375;49.136;10.366;2023-06-24T02:02:58;13.90;99.90
20432;DHT22;10375;49.136;10.366;2023-06-24T02:05:26;13.80;99.90
20432;DHT22;10375;49.136;10.366;2023-06-24T02:07:56;13.70;99.90
20432;DHT22;10375;49.136;10.366;2023-06-24T02:10:23;13.60;99.90
20432;DHT22;10375;49.136;10.366;2023-06-24T02:12:52;13.70;99.90
20432;DHT22;10375;49.136;10.366;2023-06-24T02:15:21;13.60;99.90
20432;DHT22;10375;49.136;10.366;2023-06-24T02:17:51;13.60;99.90
20432;DHT22;10375;49.136;10.366;2023-06-24T02:20:19;13.50;99.90
20432;DHT22;10375;49.136;10.366;2023-06-24T02:22:48;13.50;99.90
20432;DHT22;10375;49.136;10.366;2023-06-24T02:25:16;13.40;99.90
20432;DHT22;10375;49.136;10.366;2023-06-24T02:27:43;13.30;99.90
20432;DHT22;10375;49.136;10.366;2023-06-24T02:30:11;13.30;99.90
20432;DHT22;10375;49.136;10.366;2023-06-24T02:32:40;13.20;99.90
20432;DHT22;10375;49.136;10.366;2023-06-24T02:35:07;13.20;99.90
20432;DHT22;10375;49.136;10.366;2023-06-24T02:37:34;13.20;99.90
20432;DHT22;10375;49.136;10.366;2023-06-24T02:40:02;13.10;99.90
20432;DHT22;10375;49.136;10.366;2023-06-24T02:42:31;13.00;99.90
20432;DHT22;10375;49.136;10.366;2023-06-24T02:44:59;13.00;99.90
20432;DHT22;10375;49.136;10.366;2023-06-24T02:47:26;12.90;99.90
20432;DHT22;10375;49.136;10.366;2023-06-24T02:49:55;13.00;99.90
20432;DHT22;10375;49.136;10.366;2023-06-24T02:52:25;12.90;99.90
20432;DHT22;10375;49.136;10.366;2023-06-24T02:54:58;12.80;99.90
20432;DHT22;10375;49.136;10.366;2023-06-24T02:57:26;12.70;99.90
20432;DHT22;10375;49.136;10.366;2023-06-24T02:59:53;12.70;99.90
20432;DHT22;10375;49.136;10.366;2023-06-24T03:02:21;12.60;99.90
20432;DHT22;10375;49.136;10.366;2023-06-24T03:04:50;12.70;99.90
20432;DHT22;10375;49.136;10.366;2023-06-24T03:07:18;12.70;99.90
20432;DHT22;10375;49.136;10.366;2023-06-24T03:09:47;12.70;99.90
20432;DHT22;10375;49.136;10.366;2023-06-24T03:12:15;12.60;99.90
20432;DHT22;10375;49.136;10.366;2023-06-24T03:14:42;12.50;99.90
20432;DHT22;10375;49.136;10.366;2023-06-24T03:17:09;12.50;99.90
20432;DHT22;10375;49.136;10.366;2023-06-24T03:19:37;12.50;99.90
20432;DHT22;10375;49.136;10.366;2023-06-24T03:22:04;12.50;99.90
20432;DHT22;10375;49.136;10.366;2023-06-24T03:24:31;12.40;99.90
20432;DHT22;10375;49.136;10.366;2023-06-24T03:26:58;12.40;99.90
20432;DHT22;10375;49.136;10.366;2023-06-24T03:29:25;12.40;99.90
20432;DHT22;10375;49.136;10.366;2023-06-24T03:31:52;12.50;99.90
20432;DHT22;10375;49.136;10.366;2023-06-24T03:34:19;12.40;99.90
20432;DHT22;10375;49.136;10.366;2023-06-24T03:36:46;12.40;99.90
20432;DHT22;10375;49.136;10.366;2023-06-24T03:39:14;12.40;99.90
20432;DHT22;10375;49.136;10.366;2023-06-24T03:41:41;12.30;99.90
20432;DHT22;10375;49.136;10.366;2023-06-24T03:44:08;12.40;99.90
20432;DHT22;10375;49.136;10.366;2023-06-24T03:46:35;12.40;99.90
20432;DHT22;10375;49.136;10.366;2023-06-24T03:49:03;12.40;99.90
20432;DHT22;10375;49.136;10.366;2023-06-24T03:51:30;12.50;99.90
20432;DHT22;10375;49.136;10.366;2023-06-24T03:53:58;12.50;99.90
20432;DHT22;10375;49.136;10.366;2023-06-24T03:56:25;12.60;99.90
20432;DHT22;10375;49.136;10.366;2023-06-24T03:58:52;12.70;99.90
20432;DHT22;10375;49.136;10.366;2023-06-24T04:01:19;12.80;99.90
20432;DHT22;10375;49.136;10.366;2023-06-24T04:03:47;12.90;99.90
20432;DHT22;10375;49.136;10.366;2023-06-24T04:06:14;12.90;99.90
20432;DHT22;10375;49.136;10.366;2023-06-24T04:08:41;13.00;99.90
20432;DHT22;10375;49.136;10.366;2023-06-24T04:11:10;13.00;99.90
20432;DHT22;10375;49.136;10.366;2023-06-24T04:13:38;13.10;99.90
20432;DHT22;10375;49.136;10.366;2023-06-24T04:16:05;13.10;99.90
20432;DHT22;10375;49.136;10.366;2023-06-24T04:18:33;13.20;99.90
20432;DHT22;10375;49.136;10.366;2023-06-24T04:21:00;13.20;99.90
20432;DHT22;10375;49.136;10.366;2023-06-24T04:23:27;13.30;99.90
20432;DHT22;10375;49.136;10.366;2023-06-24T04:25:54;13.30;99.90
20432;DHT22;10375;49.136;10.366;2023-06-24T04:28:22;13.50;99.90
20432;DHT22;10375;49.136;10.366;2023-06-24T04:30:49;13.50;99.90
20432;DHT22;10375;49.136;10.366;2023-06-24T04:33:16;13.60;99.90
20432;DHT22;10375;49.136;10.366;2023-06-24T04:35:43;13.60;99.90
20432;DHT22;10375;49.136;10.366;2023-06-24T04:38:11;13.60;99.90
20432;DHT22;10375;49.136;10.366;2023-06-24T04:40:38;13.60;99.90
20432;DHT22;10375;49.136;10.366;2023-06-24T04:43:05;13.80;99.90
20432;DHT22;10375;49.136;10.366;2023-06-24T04:45:32;13.80;99.90
20432;DHT22;10375;49.136;10.366;2023-06-24T04:48:02;13.90;99.90
20432;DHT22;10375;49.136;10.366;2023-06-24T04:50:30;14.10;99.90
20432;DHT22;10375;49.136;10.366;2023-06-24T04:52:58;14.30;99.90
20432;DHT22;10375;49.136;10.366;2023-06-24T04:55:27;14.50;99.90
20432;DHT22;10375;49.136;10.366;2023-06-24T04:57:57;14.50;99.90
20432;DHT22;10375;49.136;10.366;2023-06-24T05:00:25;14.60;99.90
20432;DHT22;10375;49.136;10.366;2023-06-24T05:02:55;14.70;99.90
20432;DHT22;10375;49.136;10.366;2023-06-24T05:05:23;14.90;99.90
20432;DHT22;10375;49.136;10.366;2023-06-24T05:07:51;15.70;99.90
20432;DHT22;10375;49.136;10.366;2023-06-24T05:10:19;18.00;99.90
20432;DHT22;10375;49.136;10.366;2023-06-24T05:12:46;20.70;99.90
20432;DHT22;10375;49.136;10.366;2023-06-24T05:15:16;22.90;98.40
20432;DHT22;10375;49.136;10.366;2023-06-24T05:17:45;23.90;95.80
20432;DHT22;10375;49.136;10.366;2023-06-24T05:20:22;25.70;92.90
20432;DHT22;10375;49.136;10.366;2023-06-24T05:22:50;27.50;89.10
20432;DHT22;10375;49.136;10.366;2023-06-24T05:25:18;28.70;82.50
20432;DHT22;10375;49.136;10.366;2023-06-24T05:27:46;29.80;79.60
20432;DHT22;10375;49.136;10.366;2023-06-24T05:30:14;30.70;76.10
20432;DHT22;10375;49.136;10.366;2023-06-24T05:32:42;31.50;72.10
20432;DHT22;10375;49.136;10.366;2023-06-24T05:35:10;31.80;71.10
20432;DHT22;10375;49.136;10.366;2023-06-24T05:37:37;32.00;69.80
20432;DHT22;10375;49.136;10.366;2023-06-24T05:40:06;32.10;68.10
20432;DHT22;10375;49.136;10.366;2023-06-24T05:42:34;31.40;68.90
20432;DHT22;10375;49.136;10.366;2023-06-24T05:45:02;31.60;68.30
20432;DHT22;10375;49.136;10.366;2023-06-24T05:47:30;31.60;66.30
20432;DHT22;10375;49.136;10.366;2023-06-24T05:49:57;32.30;65.20
20432;DHT22;10375;49.136;10.366;2023-06-24T05:52:25;33.10;64.10
20432;DHT22;10375;49.136;10.366;2023-06-24T05:54:52;33.80;62.60
20432;DHT22;10375;49.136;10.366;2023-06-24T05:57:20;34.10;61.70
20432;DHT22;10375;49.136;10.366;2023-06-24T05:59:47;34.20;60.10
20432;DHT22;10375;49.136;10.366;2023-06-24T06:02:14;34.40;60.20
20432;DHT22;10375;49.136;10.366;2023-06-24T06:04:41;34.80;59.90
20432;DHT22;10375;49.136;10.366;2023-06-24T06:07:08;35.40;58.80
20432;DHT22;10375;49.136;10.366;2023-06-24T06:09:35;35.20;56.90
20432;DHT22;10375;49.136;10.366;2023-06-24T06:12:03;34.50;58.30
20432;DHT22;10375;49.136;10.366;2023-06-24T06:14:30;34.60;58.90
20432;DHT22;10375;49.136;10.366;2023-06-24T06:16:57;35.10;57.20
20432;DHT22;10375;49.136;10.366;2023-06-24T06:19:24;35.40;56.60
20432;DHT22;10375;49.136;10.366;2023-06-24T06:21:51;35.80;56.10
20432;DHT22;10375;49.136;10.366;2023-06-24T06:24:18;36.00;54.50
20432;DHT22;10375;49.136;10.366;2023-06-24T06:26:45;36.20;52.90
20432;DHT22;10375;49.136;10.366;2023-06-24T06:29:13;36.10;53.40
20432;DHT22;10375;49.136;10.366;2023-06-24T06:31:40;36.60;53.20
20432;DHT22;10375;49.136;10.366;2023-06-24T06:34:07;36.80;52.40
20432;DHT22;10375;49.136;10.366;2023-06-24T06:36:35;36.80;53.40
20432;DHT22;10375;49.136;10.366;2023-06-24T06:39:02;36.90;52.10
20432;DHT22;10375;49.136;10.366;2023-06-24T06:41:29;36.90;52.10
20432;DHT22;10375;49.136;10.366;2023-06-24T06:43:56;36.80;50.70
20432;DHT22;10375;49.136;10.366;2023-06-24T06:46:23;36.80;51.10
20432;DHT22;10375;49.136;10.366;2023-06-24T06:48:51;36.80;50.80
20432;DHT22;10375;49.136;10.366;2023-06-24T06:51:18;36.90;50.90
20432;DHT22;10375;49.136;10.366;2023-06-24T06:53:47;37.00;51.40
20432;DHT22;10375;49.136;10.366;2023-06-24T06:56:23;37.10;50.70
20432;DHT22;10375;49.136;10.366;2023-06-24T06:58:51;36.90;49.50
20432;DHT22;10375;49.136;10.366;2023-06-24T07:01:19;36.80;50.90
20432;DHT22;10375;49.136;10.366;2023-06-24T07:03:48;36.80;50.60
20432;DHT22;10375;49.136;10.366;2023-06-24T07:06:18;36.60;50.80
20432;DHT22;10375;49.136;10.366;2023-06-24T07:08:46;36.60;50.80
20432;DHT22;10375;49.136;10.366;2023-06-24T07:11:13;36.50;50.80
20432;DHT22;10375;49.136;10.366;2023-06-24T07:13:41;36.60;51.40
20432;DHT22;10375;49.136;10.366;2023-06-24T07:16:08;36.60;49.50
20432;DHT22;10375;49.136;10.366;2023-06-24T07:18:35;36.70;51.50
20432;DHT22;10375;49.136;10.366;2023-06-24T07:21:03;36.80;50.90
20432;DHT22;10375;49.136;10.366;2023-06-24T07:23:30;36.80;51.10
20432;DHT22;10375;49.136;10.366;2023-06-24T07:25:57;36.90;50.70
20432;DHT22;10375;49.136;10.366;2023-06-24T07:28:27;36.50;49.50
20432;DHT22;10375;49.136;10.366;2023-06-24T07:30:54;36.00;50.30
20432;DHT22;10375;49.136;10.366;2023-06-24T07:33:22;36.10;51.00
20432;DHT22;10375;49.136;10.366;2023-06-24T07:35:49;36.60;50.50
20432;DHT22;10375;49.136;10.366;2023-06-24T07:38:16;38.40;48.70
20432;DHT22;10375;49.136;10.366;2023-06-24T07:40:43;40.50;46.60
20432;DHT22;10375;49.136;10.366;2023-06-24T07:43:10;41.20;44.70
20432;DHT22;10375;49.136;10.366;2023-06-24T07:45:37;40.80;44.50
20432;DHT22;10375;49.136;10.366;2023-06-24T07:48:05;39.10;46.30
20432;DHT22;10375;49.136;10.366;2023-06-24T07:50:34;37.00;47.40
20432;DHT22;10375;49.136;10.366;2023-06-24T07:53:02;35.40;50.20
20432;DHT22;10375;49.136;10.366;2023-06-24T07:55:29;34.60;51.20
20432;DHT22;10375;49.136;10.366;2023-06-24T07:57:57;33.70;52.00
20432;DHT22;10375;49.136;10.366;2023-06-24T08:00:25;33.00;52.60
20432;DHT22;10375;49.136;10.366;2023-06-24T08:02:52;32.40;55.20
20432;DHT22;10375;49.136;10.366;2023-06-24T08:05:21;31.70;54.70
20432;DHT22;10375;49.136;10.366;2023-06-24T08:07:48;31.20;57.30
20432;DHT22;10375;49.136;10.366;2023-06-24T08:10:15;31.30;57.40
20432;DHT22;10375;49.136;10.366;2023-06-24T08:12:42;31.20;57.20
20432;DHT22;10375;49.136;10.366;2023-06-24T08:15:09;31.40;56.40
20432;DHT22;10375;49.136;10.366;2023-06-24T08:17:37;31.20;57.10
20432;DHT22;10375;49.136;10.366;2023-06-24T08:20:04;30.50;57.30
20432;DHT22;10375;49.136;10.366;2023-06-24T08:22:32;30.50;57.10
20432;DHT22;10375;49.136;10.366;2023-06-24T08:24:59;30.60;57.90
20432;DHT22;10375;49.136;10.366;2023-06-24T08:27:26;30.80;57.20
20432;DHT22;10375;49.136;10.366;2023-06-24T08:29:53;31.00;56.40
20432;DHT22;10375;49.136;10.366;2023-06-24T08:32:20;31.30;55.30
20432;DHT22;10375;49.136;10.366;2023-06-24T08:34:47;31.20;56.10
20432;DHT22;10375;49.136;10.366;2023-06-24T08:37:15;31.20;55.90
20432;DHT22;10375;49.136;10.366;2023-06-24T08:39:42;31.20;55.00
20432;DHT22;10375;49.136;10.366;2023-06-24T08:42:09;31.20;54.90
20432;DHT22;10375;49.136;10.366;2023-06-24T08:44:36;30.90;53.00
20432;DHT22;10375;49.136;10.366;2023-06-24T08:47:03;30.30;56.70
20432;DHT22;10375;49.136;10.366;2023-06-24T08:49:31;30.30;56.30
20432;DHT22;10375;49.136;10.366;2023-06-24T08:52:07;30.40;57.10
20432;DHT22;10375;49.136;10.366;2023-06-24T08:54:35;30.40;56.40
20432;DHT22;10375;49.136;10.366;2023-06-24T08:57:03;30.30;56.80
20432;DHT22;10375;49.136;10.366;2023-06-24T08:59:33;30.60;56.00
20432;DHT22;10375;49.136;10.366;2023-06-24T09:02:01;30.90;56.10
20432;DHT22;10375;49.136;10.366;2023-06-24T09:04:28;31.10;55.60
20432;DHT22;10375;49.136;10.366;2023-06-24T09:06:56;31.40;54.70
20432;DHT22;10375;49.136;10.366;2023-06-24T09:09:24;31.60;51.60
20432;DHT22;10375;49.136;10.366;2023-06-24T09:11:58;31.60;54.60
20432;DHT22;10375;49.136;10.366;2023-06-24T09:14:27;31.60;53.30
20432;DHT22;10375;49.136;10.366;2023-06-24T09:17:00;31.30;54.00
20432;DHT22;10375;49.136;10.366;2023-06-24T09:19:36;30.80;54.30
20432;DHT22;10375;49.136;10.366;2023-06-24T09:22:04;30.10;55.90
20432;DHT22;10375;49.136;10.366;2023-06-24T09:24:36;30.10;56.20
20432;DHT22;10375;49.136;10.366;2023-06-24T09:27:04;30.00;56.10
20432;DHT22;10375;49.136;10.366;2023-06-24T09:29:35;29.50;55.50
20432;DHT22;10375;49.136;10.366;2023-06-24T09:32:06;28.70;57.60
20432;DHT22;10375;49.136;10.366;2023-06-24T09:34:35;27.90;58.80
20432;DHT22;10375;49.136;10.366;2023-06-24T09:37:02;27.40;59.80
20432;DHT22;10375;49.136;10.366;2023-06-24T09:39:36;26.90;60.00
20432;DHT22;10375;49.136;10.366;2023-06-24T09:42:04;26.60;60.00
20432;DHT22;10375;49.136;10.366;2023-06-24T09:44:33;26.40;61.00
20432;DHT22;10375;49.136;10.366;2023-06-24T09:47:00;26.80;59.50
20432;DHT22;10375;49.136;10.366;2023-06-24T09:49:28;27.40;59.10
20432;DHT22;10375;49.136;10.366;2023-06-24T09:51:57;28.00;58.10
20432;DHT22;10375;49.136;10.366;2023-06-24T09:54:28;28.80;56.80
20432;DHT22;10375;49.136;10.366;2023-06-24T09:57:02;29.20;53.50
20432;DHT22;10375;49.136;10.366;2023-06-24T09:59:30;29.60;55.30
20432;DHT22;10375;49.136;10.366;2023-06-24T10:02:02;30.20;52.80
20432;DHT22;10375;49.136;10.366;2023-06-24T10:04:31;30.60;52.20
20432;DHT22;10375;49.136;10.366;2023-06-24T10:06:59;30.80;50.90
20432;DHT22;10375;49.136;10.366;2023-06-24T10:09:27;30.70;51.60
20432;DHT22;10375;49.136;10.366;2023-06-24T10:11:54;30.40;52.90
20432;DHT22;10375;49.136;10.366;2023-06-24T10:14:21;30.00;54.10
20432;DHT22;10375;49.136;10.366;2023-06-24T10:16:48;29.10;52.40
20432;DHT22;10375;49.136;10.366;2023-06-24T10:19:20;28.20;52.50
20432;DHT22;10375;49.136;10.366;2023-06-24T10:22:03;27.40;56.10
20432;DHT22;10375;49.136;10.366;2023-06-24T10:24:46;26.80;57.50
20432;DHT22;10375;49.136;10.366;2023-06-24T10:27:23;26.20;58.70
20432;DHT22;10375;49.136;10.366;2023-06-24T10:29:54;26.50;59.60
20432;DHT22;10375;49.136;10.366;2023-06-24T10:32:23;27.20;57.60
20432;DHT22;10375;49.136;10.366;2023-06-24T10:34:55;27.80;56.00
20432;DHT22;10375;49.136;10.366;2023-06-24T10:37:24;28.20;52.90
20432;DHT22;10375;49.136;10.366;2023-06-24T10:39:53;28.10;52.70
20432;DHT22;10375;49.136;10.366;2023-06-24T10:45:21;28.70;50.90
20432;DHT22;10375;49.136;10.366;2023-06-24T10:47:50;29.50;51.40
20432;DHT22;10375;49.136;10.366;2023-06-24T10:50:21;29.30;50.80
20432;DHT22;10375;49.136;10.366;2023-06-24T10:52:49;28.90;50.60
20432;DHT22;10375;49.136;10.366;2023-06-24T10:55:22;28.90;52.50
20432;DHT22;10375;49.136;10.366;2023-06-24T10:57:51;29.40;50.80
20432;DHT22;10375;49.136;10.366;2023-06-24T11:00:20;30.00;49.80
20432;DHT22;10375;49.136;10.366;2023-06-24T11:02:49;30.00;50.20
20432;DHT22;10375;49.136;10.366;2023-06-24T11:05:16;30.20;50.80
20432;DHT22;10375;49.136;10.366;2023-06-24T11:07:43;29.90;50.80
20432;DHT22;10375;49.136;10.366;2023-06-24T11:10:12;29.80;52.80
20432;DHT22;10375;49.136;10.366;2023-06-24T11:12:40;29.90;52.40
20432;DHT22;10375;49.136;10.366;2023-06-24T11:15:12;29.80;51.10
20432;DHT22;10375;49.136;10.366;2023-06-24T11:17:40;30.10;51.30
20432;DHT22;10375;49.136;10.366;2023-06-24T11:20:09;30.60;52.80
20432;DHT22;10375;49.136;10.366;2023-06-24T11:22:37;31.00;49.90
20432;DHT22;10375;49.136;10.366;2023-06-24T11:25:04;30.70;50.30
20432;DHT22;10375;49.136;10.366;2023-06-24T11:27:31;30.30;50.50
20432;DHT22;10375;49.136;10.366;2023-06-24T11:30:00;30.50;49.70
20432;DHT22;10375;49.136;10.366;2023-06-24T11:32:40;30.60;50.20
20432;DHT22;10375;49.136;10.366;2023-06-24T11:35:09;31.30;50.70
20432;DHT22;10375;49.136;10.366;2023-06-24T11:37:37;31.70;51.10
20432;DHT22;10375;49.136;10.366;2023-06-24T11:40:06;31.80;48.10
20432;DHT22;10375;49.136;10.366;2023-06-24T11:42:37;31.70;47.80
20432;DHT22;10375;49.136;10.366;2023-06-24T11:45:08;31.90;47.70
20432;DHT22;10375;49.136;10.366;2023-06-24T11:47:39;31.90;45.70
20432;DHT22;10375;49.136;10.366;2023-06-24T11:50:08;30.90;47.40
20432;DHT22;10375;49.136;10.366;2023-06-24T11:52:43;30.20;49.50
20432;DHT22;10375;49.136;10.366;2023-06-24T11:55:16;29.80;49.60
20432;DHT22;10375;49.136;10.366;2023-06-24T11:57:51;29.20;51.80
20432;DHT22;10375;49.136;10.366;2023-06-24T12:00:32;28.60;50.80
20432;DHT22;10375;49.136;10.366;2023-06-24T12:03:02;28.00;54.00
20432;DHT22;10375;49.136;10.366;2023-06-24T12:05:33;28.10;53.40
20432;DHT22;10375;49.136;10.366;2023-06-24T12:08:09;28.90;50.70
20432;DHT22;10375;49.136;10.366;2023-06-24T12:10:37;29.70;50.30
20432;DHT22;10375;49.136;10.366;2023-06-24T12:13:06;30.30;50.30
20432;DHT22;10375;49.136;10.366;2023-06-24T12:15:36;30.80;49.00
20432;DHT22;10375;49.136;10.366;2023-06-24T12:18:03;31.30;47.80
20432;DHT22;10375;49.136;10.366;2023-06-24T12:20:30;31.60;47.20
20432;DHT22;10375;49.136;10.366;2023-06-24T12:23:03;31.00;46.10
20432;DHT22;10375;49.136;10.366;2023-06-24T12:25:31;30.30;48.70
20432;DHT22;10375;49.136;10.366;2023-06-24T12:27:58;30.30;49.70
20432;DHT22;10375;49.136;10.366;2023-06-24T12:30:28;30.70;47.70
20432;DHT22;10375;49.136;10.366;2023-06-24T12:32:55;31.00;50.60
20432;DHT22;10375;49.136;10.366;2023-06-24T12:35:23;30.80;48.90
20432;DHT22;10375;49.136;10.366;2023-06-24T12:37:52;30.80;48.20
20432;DHT22;10375;49.136;10.366;2023-06-24T12:40:19;31.10;48.20
20432;DHT22;10375;49.136;10.366;2023-06-24T12:42:47;31.50;49.40
20432;DHT22;10375;49.136;10.366;2023-06-24T12:45:14;31.90;48.20
20432;DHT22;10375;49.136;10.366;2023-06-24T12:47:41;32.20;46.50
20432;DHT22;10375;49.136;10.366;2023-06-24T12:50:09;32.30;43.80
20432;DHT22;10375;49.136;10.366;2023-06-24T12:52:36;32.40;45.00
20432;DHT22;10375;49.136;10.366;2023-06-24T12:55:05;32.50;45.00
20432;DHT22;10375;49.136;10.366;2023-06-24T12:57:35;32.40;44.10
20432;DHT22;10375;49.136;10.366;2023-06-24T13:00:03;32.20;45.60
20432;DHT22;10375;49.136;10.366;2023-06-24T13:02:32;32.10;45.70
20432;DHT22;10375;49.136;10.366;2023-06-24T13:05:00;31.90;46.20
20432;DHT22;10375;49.136;10.366;2023-06-24T13:07:27;31.50;46.30
20432;DHT22;10375;49.136;10.366;2023-06-24T13:09:54;30.80;47.10
20432;DHT22;10375;49.136;10.366;2023-06-24T13:12:21;30.60;47.50
20432;DHT22;10375;49.136;10.366;2023-06-24T13:14:49;30.60;48.40
20432;DHT22;10375;49.136;10.366;2023-06-24T13:17:16;31.10;46.70
20432;DHT22;10375;49.136;10.366;2023-06-24T13:19:43;31.50;47.70
20432;DHT22;10375;49.136;10.366;2023-06-24T13:22:10;32.00;47.70
20432;DHT22;10375;49.136;10.366;2023-06-24T13:24:37;32.40;45.90
20432;DHT22;10375;49.136;10.366;2023-06-24T13:27:04;32.50;45.90
20432;DHT22;10375;49.136;10.366;2023-06-24T13:29:32;32.80;45.60
20432;DHT22;10375;49.136;10.366;2023-06-24T13:31:59;33.00;45.20
20432;DHT22;10375;49.136;10.366;2023-06-24T13:34:26;33.20;43.60
20432;DHT22;10375;49.136;10.366;2023-06-24T13:36:53;33.20;43.10
20432;DHT22;10375;49.136;10.366;2023-06-24T13:39:21;33.20;44.10
20432;DHT22;10375;49.136;10.366;2023-06-24T13:41:51;33.20;44.50
20432;DHT22;10375;49.136;10.366;2023-06-24T13:44:21;33.20;44.20
20432;DHT22;10375;49.136;10.366;2023-06-24T13:46:49;33.10;45.20
20432;DHT22;10375;49.136;10.366;2023-06-24T13:49:17;33.20;42.70
20432;DHT22;10375;49.136;10.366;2023-06-24T13:51:44;32.80;43.00
20432;DHT22;10375;49.136;10.366;2023-06-24T13:54:11;32.60;43.90
20432;DHT22;10375;49.136;10.366;2023-06-24T13:56:41;32.50;44.50
20432;DHT22;10375;49.136;10.366;2023-06-24T13:59:08;32.60;45.40
20432;DHT22;10375;49.136;10.366;2023-06-24T14:01:37;32.80;45.20
20432;DHT22;10375;49.136;10.366;2023-06-24T14:04:04;32.90;44.20
20432;DHT22;10375;49.136;10.366;2023-06-24T14:06:32;33.10;44.00
20432;DHT22;10375;49.136;10.366;2023-06-24T14:09:00;33.40;43.50
20432;DHT22;10375;49.136;10.366;2023-06-24T14:11:29;33.50;43.60
20432;DHT22;10375;49.136;10.366;2023-06-24T14:13:56;33.80;41.70
20432;DHT22;10375;49.136;10.366;2023-06-24T14:16:26;33.50;42.30
20432;DHT22;10375;49.136;10.366;2023-06-24T14:18:56;32.90;43.30
20432;DHT22;10375;49.136;10.366;2023-06-24T14:21:24;32.50;44.00
20432;DHT22;10375;49.136;10.366;2023-06-24T14:23:51;31.70;45.10
20432;DHT22;10375;49.136;10.366;2023-06-24T14:26:23;30.60;46.00
20432;DHT22;10375;49.136;10.366;2023-06-24T14:28:53;29.70;46.50
20432;DHT22;10375;49.136;10.366;2023-06-24T14:31:20;28.90;48.50
20432;DHT22;10375;49.136;10.366;2023-06-24T14:33:47;28.40;49.90
20432;DHT22;10375;49.136;10.366;2023-06-24T14:36:14;28.10;50.00
20432;DHT22;10375;49.136;10.366;2023-06-24T14:38:41;28.00;50.70
20432;DHT22;10375;49.136;10.366;2023-06-24T14:41:09;27.90;52.20
20432;DHT22;10375;49.136;10.366;2023-06-24T14:43:37;28.10;51.60
20432;DHT22;10375;49.136;10.366;2023-06-24T14:46:04;28.60;50.60
20432;DHT22;10375;49.136;10.366;2023-06-24T14:48:31;28.70;49.60
20432;DHT22;10375;49.136;10.366;2023-06-24T14:50:58;28.90;49.40
20432;DHT22;10375;49.136;10.366;2023-06-24T14:53:25;29.40;48.50
20432;DHT22;10375;49.136;10.366;2023-06-24T14:56:00;29.90;49.50
20432;DHT22;10375;49.136;10.366;2023-06-24T14:58:27;30.30;49.10
20432;DHT22;10375;49.136;10.366;2023-06-24T15:00:58;30.60;47.30
20432;DHT22;10375;49.136;10.366;2023-06-24T15:03:26;30.70;46.50
20432;DHT22;10375;49.136;10.366;2023-06-24T15:05:53;30.50;44.60
20432;DHT22;10375;49.136;10.366;2023-06-24T15:08:20;30.00;45.40
20432;DHT22;10375;49.136;10.366;2023-06-24T15:10:47;29.60;46.30
20432;DHT22;10375;49.136;10.366;2023-06-24T15:13:18;29.00;47.10
20432;DHT22;10375;49.136;10.366;2023-06-24T15:15:45;28.90;47.80
20432;DHT22;10375;49.136;10.366;2023-06-24T15:18:12;28.90;47.80
20432;DHT22;10375;49.136;10.366;2023-06-24T15:20:41;28.80;47.90
20432;DHT22;10375;49.136;10.366;2023-06-24T15:23:08;28.50;48.70
20432;DHT22;10375;49.136;10.366;2023-06-24T15:25:35;28.20;50.10
20432;DHT22;10375;49.136;10.366;2023-06-24T15:28:02;27.90;50.00
20432;DHT22;10375;49.136;10.366;2023-06-24T15:30:30;27.70;50.80
20432;DHT22;10375;49.136;10.366;2023-06-24T15:32:57;27.80;51.00
20432;DHT22;10375;49.136;10.366;2023-06-24T15:35:25;28.20;50.50
20432;DHT22;10375;49.136;10.366;2023-06-24T15:37:52;28.50;50.70
20432;DHT22;10375;49.136;10.366;2023-06-24T15:40:19;28.50;50.50